createdAt,value
2022-12-09T00:00:19.357Z,28
2022-12-09T00:05:18.221Z,28
2022-12-09T00:10:18.714Z,26
2022-12-09T00:15:18.386Z,28
2022-12-09T00:20:18.107Z,27
2022-12-09T00:25:18.516Z,29
2022-12-09T00:30:18.477Z,28
2022-12-09T00:35:16.133Z,28
2022-12-09T00:40:16.426Z,29
2022-12-09T00:45:16.105Z,27
2022-12-09T00:50:16.311Z,26
2022-12-09T00:55:16.695Z,26
2022-12-09T01:00:16.228Z,26
2022-12-09T01:05:16.815Z,26
2022-12-09T01:10:16.424Z,27
2022-12-09T01:15:16.454Z,26
2022-12-09T01:20:16.362Z,26
2022-12-09T01:25:16.606Z,27
2022-12-09T01:30:16.553Z,26
2022-12-09T01:35:16.730Z,25
2022-12-09T01:40:16.838Z,26
2022-12-09T01:45:16.336Z,28
2022-12-09T01:50:16.687Z,27
2022-12-09T01:55:16.854Z,26
2022-12-09T02:00:17.592Z,27
2022-12-09T02:05:16.813Z,31
2022-12-09T02:10:16.847Z,29
2022-12-09T02:15:16.803Z,31
2022-12-09T02:20:16.754Z,32
2022-12-09T02:25:16.916Z,29
2022-12-09T02:30:16.669Z,30
2022-12-09T02:35:16.381Z,27
2022-12-09T02:40:16.905Z,30
2022-12-09T02:45:16.930Z,28
2022-12-09T02:50:16.751Z,30
2022-12-09T02:55:16.563Z,29
2022-12-09T03:00:16.927Z,30
2022-12-09T03:05:16.808Z,29
2022-12-09T03:10:17.074Z,29
2022-12-09T03:15:16.945Z,32
2022-12-09T03:20:16.764Z,31
2022-12-09T03:25:17.199Z,29
2022-12-09T03:30:16.981Z,29
2022-12-09T03:35:16.576Z,27
2022-12-09T03:40:17.755Z,26
2022-12-09T03:45:16.603Z,30
2022-12-09T03:50:17.091Z,30
2022-12-09T03:55:16.882Z,29
2022-12-09T04:00:18.315Z,29
2022-12-09T04:05:16.942Z,30
2022-12-09T04:10:16.836Z,27
2022-12-09T04:15:16.895Z,28
2022-12-09T04:20:16.783Z,28
2022-12-09T04:25:16.988Z,28
2022-12-09T04:30:17.116Z,31
2022-12-09T04:35:17.075Z,29
2022-12-09T04:40:23.165Z,30
2022-12-09T04:45:16.682Z,28
2022-12-09T04:50:17.125Z,31
2022-12-09T04:55:16.980Z,28
2022-12-09T05:00:18.014Z,28
2022-12-09T05:05:18.490Z,27
2022-12-09T05:10:18.102Z,27
2022-12-09T05:15:18.043Z,27
2022-12-09T05:20:18.269Z,29
2022-12-09T05:25:18.170Z,25
2022-12-09T05:30:18.082Z,20
2022-12-09T05:35:18.140Z,19
2022-12-09T05:40:18.463Z,20
2022-12-09T05:45:17.981Z,20
2022-12-09T05:50:18.745Z,15
2022-12-09T05:55:18.357Z,17
2022-12-09T06:00:19.299Z,20
2022-12-09T06:05:18.280Z,21
2022-12-09T06:10:18.938Z,21
2022-12-09T06:15:21.607Z,20
2022-12-09T06:20:18.232Z,20
2022-12-09T06:25:18.240Z,21
2022-12-09T06:30:18.070Z,23
2022-12-09T06:35:18.390Z,24
2022-12-09T06:40:18.692Z,22
2022-12-09T06:45:18.134Z,23
2022-12-09T06:50:18.728Z,23
2022-12-09T06:55:18.171Z,22
2022-12-09T07:00:18.416Z,24
2022-12-09T07:05:18.755Z,23
2022-12-09T07:10:18.488Z,26
2022-12-09T07:15:18.225Z,24
2022-12-09T07:20:16.461Z,22
2022-12-09T07:25:16.456Z,23
2022-12-09T07:30:16.451Z,27
2022-12-09T07:35:16.679Z,29
2022-12-09T07:40:16.775Z,27
2022-12-09T07:45:16.586Z,27
2022-12-09T07:50:16.614Z,26
2022-12-09T07:55:16.623Z,26
2022-12-09T08:00:17.839Z,26
2022-12-09T08:05:17.031Z,27
2022-12-09T08:10:16.645Z,25
2022-12-09T08:15:16.449Z,27
2022-12-09T08:20:16.989Z,27
2022-12-09T08:25:16.720Z,25
2022-12-09T08:30:17.035Z,25
2022-12-09T08:35:16.898Z,25
2022-12-09T08:40:18.666Z,27
2022-12-09T08:45:16.411Z,25
2022-12-09T08:50:17.426Z,27
2022-12-09T08:55:17.017Z,26
2022-12-09T09:00:16.868Z,26
2022-12-09T09:05:16.704Z,27
2022-12-09T09:10:17.938Z,27
2022-12-09T09:15:17.275Z,27
2022-12-09T09:20:17.123Z,27
2022-12-09T09:25:17.063Z,26
2022-12-09T09:30:17.060Z,28
2022-12-09T09:35:16.649Z,30
2022-12-09T09:40:16.905Z,30
2022-12-09T09:45:16.650Z,30
2022-12-09T09:50:17.474Z,27
2022-12-09T09:55:16.836Z,27
2022-12-09T10:00:18.010Z,26
2022-12-09T10:05:17.329Z,27
2022-12-09T10:10:17.467Z,25
2022-12-09T10:15:17.081Z,27
2022-12-09T10:20:17.725Z,25
2022-12-09T10:25:16.994Z,25
2022-12-09T10:30:17.457Z,27
2022-12-09T10:35:16.991Z,26
2022-12-09T10:40:17.682Z,25
2022-12-09T10:45:17.086Z,27
2022-12-09T10:50:17.636Z,28
2022-12-09T10:55:16.948Z,26
2022-12-09T11:00:17.362Z,29
2022-12-09T11:05:17.240Z,26
2022-12-09T11:10:17.766Z,29
2022-12-09T11:15:17.248Z,31
2022-12-09T11:20:17.591Z,28
2022-12-09T11:25:17.432Z,27
2022-12-09T11:30:18.377Z,29
2022-12-09T11:35:17.175Z,27
2022-12-09T11:40:17.030Z,32
2022-12-09T11:45:16.803Z,28
2022-12-09T11:50:17.019Z,24
2022-12-09T11:55:16.877Z,24
2022-12-09T12:00:18.426Z,25
2022-12-09T12:05:21.251Z,25
2022-12-09T12:10:16.988Z,19
2022-12-09T12:15:16.864Z,28
2022-12-09T12:20:17.021Z,27
2022-12-09T12:25:18.249Z,28
2022-12-09T12:30:17.076Z,27
2022-12-09T12:35:18.959Z,25
2022-12-09T12:40:21.932Z,28
2022-12-09T12:45:16.892Z,27
2022-12-09T12:50:17.036Z,28
2022-12-09T12:55:17.280Z,28
2022-12-09T13:00:17.039Z,30
2022-12-09T13:05:16.980Z,33
2022-12-09T13:10:17.388Z,28
2022-12-09T13:15:17.045Z,30
2022-12-09T13:20:17.124Z,29
2022-12-09T13:25:17.215Z,29
2022-12-09T13:30:17.247Z,32
2022-12-09T13:35:17.045Z,30
2022-12-09T13:40:17.207Z,31
2022-12-09T13:45:17.619Z,29
2022-12-09T13:50:17.183Z,32
2022-12-09T13:55:17.197Z,32
2022-12-09T14:00:18.217Z,29
2022-12-09T14:05:17.237Z,29
2022-12-09T14:10:17.394Z,30
2022-12-09T14:15:17.405Z,30
2022-12-09T14:20:17.880Z,30
2022-12-09T14:25:17.227Z,28
2022-12-09T14:30:17.239Z,29
2022-12-09T14:35:17.227Z,30
2022-12-09T14:40:17.502Z,30
2022-12-09T14:45:17.254Z,31
2022-12-09T14:50:17.481Z,31
2022-12-09T14:55:17.517Z,31
2022-12-09T15:00:17.274Z,31
2022-12-09T15:05:17.356Z,30
2022-12-09T15:10:17.454Z,33
2022-12-09T15:15:17.329Z,28
2022-12-09T15:20:17.833Z,33
2022-12-09T15:25:17.529Z,31
2022-12-09T15:30:17.852Z,32
2022-12-09T15:35:17.402Z,31
2022-12-09T15:40:17.682Z,29
2022-12-09T15:45:17.476Z,33
2022-12-09T15:50:17.511Z,34
2022-12-09T15:55:17.489Z,34
2022-12-09T16:00:19.309Z,36
2022-12-09T16:05:17.460Z,36
2022-12-09T16:10:17.655Z,38
2022-12-09T16:15:17.529Z,38
2022-12-09T16:20:17.551Z,35
2022-12-09T16:25:17.627Z,37
2022-12-09T16:30:17.573Z,39
2022-12-09T16:35:17.653Z,39
2022-12-09T16:40:18.067Z,36
2022-12-09T16:45:17.599Z,38
2022-12-09T16:50:17.695Z,38
2022-12-09T16:55:18.262Z,36
2022-12-09T17:00:17.685Z,38
2022-12-09T17:05:17.610Z,36
2022-12-09T17:10:18.371Z,38
2022-12-09T17:15:18.009Z,40
2022-12-09T17:20:17.713Z,39
2022-12-09T17:25:17.968Z,42
2022-12-09T17:30:18.685Z,36
2022-12-09T17:35:18.274Z,36
2022-12-09T17:40:17.808Z,37
2022-12-09T17:45:17.897Z,34
2022-12-09T17:50:18.145Z,37
2022-12-09T17:55:18.002Z,40
2022-12-09T18:00:18.793Z,35
2022-12-09T18:05:17.895Z,36
2022-12-09T18:10:18.027Z,39
2022-12-09T18:15:17.996Z,37
2022-12-09T18:20:18.224Z,34
2022-12-09T18:25:18.022Z,32
2022-12-09T18:30:17.873Z,31
2022-12-09T18:35:17.814Z,30
2022-12-09T18:40:18.090Z,33
2022-12-09T18:45:17.964Z,32
2022-12-09T18:50:17.960Z,30
2022-12-09T18:55:18.189Z,31
2022-12-09T19:00:18.031Z,33
2022-12-09T19:05:17.944Z,35
2022-12-09T19:10:18.173Z,32
2022-12-09T19:15:18.097Z,28
2022-12-09T19:20:18.098Z,30
2022-12-09T19:25:18.617Z,30
2022-12-09T19:30:18.207Z,32
2022-12-09T19:35:18.081Z,36
2022-12-09T19:40:18.397Z,31
2022-12-09T19:45:18.021Z,29
2022-12-09T19:50:18.119Z,31
2022-12-09T19:55:18.223Z,31
2022-12-09T20:00:19.502Z,28
2022-12-09T20:05:18.026Z,29
2022-12-09T20:10:18.548Z,29
2022-12-09T20:15:18.210Z,33
2022-12-09T20:20:18.431Z,29
2022-12-09T20:25:16.269Z,32
2022-12-09T20:30:16.568Z,31
2022-12-09T20:35:16.305Z,30
2022-12-09T20:40:16.293Z,33
2022-12-09T20:45:16.430Z,35
2022-12-09T20:50:16.258Z,32
2022-12-09T20:55:16.214Z,33
2022-12-09T21:00:16.484Z,32
2022-12-09T21:05:16.221Z,35
2022-12-09T21:10:16.649Z,36
2022-12-09T21:15:16.281Z,36
2022-12-09T21:20:16.624Z,36
2022-12-09T21:25:16.412Z,38
2022-12-09T21:30:16.620Z,36
2022-12-09T21:35:16.358Z,37
2022-12-09T21:40:16.597Z,36
2022-12-09T21:45:16.630Z,36
2022-12-09T21:50:16.453Z,35
2022-12-09T21:55:16.488Z,36
2022-12-09T22:00:17.373Z,40
2022-12-09T22:05:16.457Z,38
2022-12-09T22:10:16.532Z,40
2022-12-09T22:15:16.682Z,40
2022-12-09T22:21:00.640Z,39
2022-12-09T22:25:16.758Z,36
2022-12-09T22:30:16.595Z,40
2022-12-09T22:35:16.692Z,38
2022-12-09T22:40:16.848Z,39
2022-12-09T22:45:16.413Z,40
2022-12-09T22:50:16.649Z,37
2022-12-09T22:55:17.042Z,41
2022-12-09T23:00:16.676Z,42
2022-12-09T23:05:16.576Z,38
2022-12-09T23:10:16.705Z,36
2022-12-09T23:15:16.644Z,35
2022-12-09T23:20:16.765Z,37
2022-12-09T23:25:16.707Z,40
2022-12-09T23:30:16.913Z,38
2022-12-09T23:35:16.844Z,41
2022-12-09T23:40:17.125Z,37
2022-12-09T23:45:16.733Z,42
2022-12-09T23:50:16.893Z,39
2022-12-09T23:55:16.763Z,37
